Current Conditions

Updated: 14-Aug-2018 07:24 AM  
Summary / Temperature Wind Rain






Feels like: 67°F

1-hour difference
2.2°F 2.2°F warmer than last hour.

24-hour difference
0.4°F0.4°F warmer than yesterday at this time.

  Today Yesterday
High: 78.5°F
12:00 AM
99.4°F
4:06 PM
Low: 64.9°F
5:37 AM
65.5°F
6:02 AM
Calm SE
0.0
Gust:  0.0 mph
0 Beaufort - Calm

Today: 5.8 - 1:50 PM
Month: 9.2 mph - Aug 1
Rain Today: 0.00 in
Current Rate (/hr): 0.000 in
Max Rate (/hr):
Rain Yesterday: 0.00 in
Storm Rain: 0.00 in
This Month: 0.00 in
Season Total: 6.40 in
Last Rain Event: 119 days ago
Humidity / Barometer Sun / Moon
Humidity: 74 Decreased 4.0% in the last hour.
Dew Point: 58.7°F Increased 0.7°F in the last hour.
Barometer: 29.831 inHg  
Baro Trend: Rising slowly
Sunrise: 6:13 AM
Sunset: 7:49 PM
Moonrise: 9:53 AM
Moonset: 9:40 PM
Sky Conditions UV Index
Summary: Clear
Visibility: 8 miles
Clouds: None
KVIS - 6:56 AM PDT
Current: 0.0  None 
Tuesday: 9.3  Very High 
Wednesday: 9.6  Very High 
Air Quality Fire Danger
 Moderate 
Ozone 20 ppb
PM 2.5 23 μg/m3
7:20 AM PDT
Current: 2  Low 

Local Alerts Local Forecast
Local NWS Alerts
Today

Hazy

High 98
Tonight

Clear

Low 65
Wed

Sunny

High 99
Wed night

Clear

Low 67
Thu

Sunny

High 100
Thu night

Hazy

Low 69
Fri

Hazy

High 101

Local Radar Local Satellite Neighborhood Cam Sky Cam
Local Radar Local Satellite Neighborhood Cam Sky Cam


Nearby Personal Stations

Weather Underground PWS KCAEXETE7     Weather Underground PWS KCAEXETE6     Weather Underground PWS KCAEXETE11

Nearby Airport Stations

KVIS - Visalia, California, USA
Distance from station: W 14mi, 23km
Updated: Tue, 14-Aug-2018 6:56am PDT
Clear
Clear
 Wind from ESE
Wind: ESE 6 mph , 9 km/h
Temperature: 63°F , 17°C
Dew Point: 57°F , 14°C
Humidity: 83%
Barometer: 29.86 inHg , 1011.2 hPa
Clouds: Clear
Visibility: 8 miles , 13 km
2018/08/14 13:56 KVIS 141356Z AUTO 12005KT 8SM CLR 17/14 A2986 RMK AO2 SLP116 T01720144
KPTV - Porterville, California, USA
Distance from station: SSE 19mi, 31km
Updated: Tue, 14-Aug-2018 6:56am PDT
Clear
Clear
 Wind from SSE
Wind: SSE 6 mph , 9 km/h
Temperature: 66°F , 19°C
Dew Point: 52°F , 11°C
Humidity: 60%
Barometer: 29.88 inHg , 1011.9 hPa
Clouds: Clear
Visibility: 10 miles , 16 km
2018/08/14 13:56 KPTV 141356Z AUTO 16005KT 10SM CLR 19/11 A2988 RMK AO2 SLP122 T01890111

Metar display script from Saratoga-Weather.org



Visitor Map